Time;durP1;ratioP1;P1;durP2;ratioP2;P2;SDS_P1;SDS_P2;PMS_P1;PMS_P2;Temp;Humidity;BMP_temperature;BMP_pressure;BME280_temperature;BME280_humidity;BME280_pressure;Samples;Min_cycle;Max_cycle;Signal;HPM_P1;HPM_P2
2022/05/13 00:01:13;;;;;;;2.63;1.70;;;13.90;99.90;;;;;;5075867;28;20192;-68
2022/05/13 00:03:39;;;;;;;3.33;1.43;;;13.70;99.90;;;;;;5071571;28;20253;-69
2022/05/13 00:06:06;;;;;;;1.60;1.50;;;13.70;99.90;;;;;;5071674;28;20364;-69
2022/05/13 00:08:33;;;;;;;3.30;1.60;;;13.80;99.90;;;;;;5072013;28;20495;-68
2022/05/13 00:10:59;;;;;;;2.10;1.73;;;13.80;99.90;;;;;;5072489;28;20410;-69
2022/05/13 00:13:24;;;;;;;2.17;1.63;;;13.70;99.90;;;;;;5072177;28;20479;-69
2022/05/13 00:15:50;;;;;;;2.10;1.90;;;13.70;99.90;;;;;;5071793;28;20492;-68
2022/05/13 00:18:17;;;;;;;4.20;2.80;;;13.60;99.90;;;;;;5071381;28;20178;-70
2022/05/13 00:20:43;;;;;;;4.30;2.50;;;13.50;99.90;;;;;;5071671;28;20174;-68
2022/05/13 00:23:08;;;;;;;4.33;2.70;;;13.50;99.90;;;;;;5071760;28;20805;-68
2022/05/13 00:25:36;;;;;;;4.10;2.67;;;13.70;99.90;;;;;;5074458;28;20424;-68
2022/05/13 00:28:02;;;;;;;1.97;1.83;;;13.60;99.90;;;;;;5074405;28;20531;-68
2022/05/13 00:30:30;;;;;;;2.73;2.17;;;13.50;99.90;;;;;;5074570;28;20458;-70
2022/05/13 00:32:56;;;;;;;4.13;3.03;;;13.50;99.90;;;;;;5073985;28;20833;-69
2022/05/13 00:35:23;;;;;;;5.00;3.07;;;13.50;99.90;;;;;;5074118;28;20431;-68
2022/05/13 00:37:48;;;;;;;3.50;3.07;;;13.50;99.90;;;;;;5074205;28;20172;-68
2022/05/13 00:40:16;;;;;;;3.23;2.93;;;13.50;99.90;;;;;;5074121;28;20397;-69
2022/05/13 00:42:42;;;;;;;2.93;2.70;;;13.40;99.90;;;;;;5073810;28;20806;-69
2022/05/13 00:45:08;;;;;;;3.53;2.70;;;13.40;99.90;;;;;;5074222;28;20774;-69
2022/05/13 00:47:34;;;;;;;3.23;2.30;;;13.30;99.90;;;;;;5073895;28;20400;-69
2022/05/13 00:50:02;;;;;;;3.70;3.20;;;13.10;99.90;;;;;;5073939;28;20397;-68
2022/05/13 00:52:27;;;;;;;3.63;3.33;;;13.10;99.90;;;;;;5073654;28;20563;-69
2022/05/13 00:54:54;;;;;;;5.00;3.50;;;13.30;99.90;;;;;;5073580;28;20416;-68
2022/05/13 00:57:21;;;;;;;3.57;3.13;;;13.20;99.90;;;;;;5073840;28;20174;-68
2022/05/13 00:59:49;;;;;;;3.13;2.70;;;13.10;99.90;;;;;;5073713;28;20898;-68
2022/05/13 01:02:15;;;;;;;3.30;3.00;;;13.10;99.90;;;;;;5073562;28;20596;-68
2022/05/13 01:04:42;;;;;;;6.33;3.50;;;13.20;99.90;;;;;;5073561;28;20405;-68
2022/05/13 01:07:19;;;;;;;5.47;4.33;;;13.20;99.90;;;;;;5074124;28;20504;-68
2022/05/13 01:09:54;;;;;;;5.63;3.77;;;13.10;99.90;;;;;;5073759;28;20404;-68
2022/05/13 01:12:23;;;;;;;11.97;4.70;;;12.90;99.90;;;;;;5073669;28;20426;-68
2022/05/13 01:14:56;;;;;;;6.10;4.50;;;12.80;99.90;;;;;;5072791;28;20405;-69
2022/05/13 01:20:22;;;;;;;5.50;4.30;;;13.00;99.90;;;;;;5073719;28;20443;-68
2022/05/13 01:22:51;;;;;;;5.87;3.60;;;12.90;99.90;;;;;;5073133;28;20440;-68
2022/05/13 01:25:20;;;;;;;10.30;5.10;;;12.80;99.90;;;;;;5073235;28;20417;-70
2022/05/13 01:27:47;;;;;;;4.53;4.13;;;12.70;99.90;;;;;;5073738;28;20863;-68
2022/05/13 01:30:17;;;;;;;4.07;3.67;;;12.70;99.90;;;;;;5073293;28;20442;-68
2022/05/13 01:32:42;;;;;;;5.80;3.00;;;12.70;99.90;;;;;;5072989;28;20444;-68
2022/05/13 01:35:09;;;;;;;5.77;4.00;;;12.90;99.90;;;;;;5072107;28;20423;-67
2022/05/13 01:37:35;;;;;;;4.90;3.00;;;13.00;99.90;;;;;;5073108;28;20228;-68
2022/05/13 01:40:02;;;;;;;4.07;3.17;;;12.80;99.90;;;;;;5073051;28;20404;-68
2022/05/13 01:42:29;;;;;;;5.60;3.67;;;12.90;99.90;;;;;;5073112;28;20824;-68
2022/05/13 01:44:55;;;;;;;3.40;3.10;;;12.90;99.90;;;;;;5072912;28;20479;-68
2022/05/13 01:47:20;;;;;;;2.93;2.73;;;13.00;99.90;;;;;;5074504;28;20928;-68
2022/05/13 01:49:46;;;;;;;4.00;2.40;;;13.10;99.90;;;;;;5076158;28;20424;-69
2022/05/13 01:52:11;;;;;;;2.90;2.33;;;13.10;99.90;;;;;;5072708;28;20233;-68
2022/05/13 01:54:37;;;;;;;5.73;2.77;;;13.10;99.90;;;;;;5072651;28;20228;-68
2022/05/13 01:57:03;;;;;;;3.20;3.00;;;13.00;99.90;;;;;;5072878;28;20171;-68
2022/05/13 01:59:28;;;;;;;5.43;3.23;;;13.00;99.90;;;;;;5073003;28;20252;-68
2022/05/13 02:01:54;;;;;;;2.67;1.80;;;12.90;99.90;;;;;;5072459;28;20421;-69
2022/05/13 02:04:19;;;;;;;2.80;2.40;;;13.00;99.90;;;;;;5072612;28;20166;-69
2022/05/13 02:06:45;;;;;;;9.63;3.70;;;12.80;99.90;;;;;;5072530;28;20246;-69
2022/05/13 02:09:10;;;;;;;3.90;3.33;;;12.70;99.90;;;;;;5072592;28;20166;-69
2022/05/13 02:11:36;;;;;;;3.30;2.80;;;12.50;99.90;;;;;;5072281;28;20205;-68
2022/05/13 02:14:04;;;;;;;6.73;2.70;;;12.60;99.90;;;;;;5072516;28;20182;-68
2022/05/13 02:16:29;;;;;;;3.60;3.00;;;12.50;99.90;;;;;;5072485;28;20487;-68
2022/05/13 02:18:55;;;;;;;2.40;2.20;;;12.50;99.90;;;;;;5072236;28;20455;-68
2022/05/13 02:21:21;;;;;;;3.50;3.07;;;12.50;99.90;;;;;;5072113;28;20715;-69
2022/05/13 02:23:46;;;;;;;3.20;2.90;;;12.40;99.90;;;;;;5072046;28;20250;-69
2022/05/13 02:26:14;;;;;;;3.00;2.80;;;12.40;99.90;;;;;;5072406;28;20202;-69
2022/05/13 02:28:40;;;;;;;3.47;3.17;;;12.40;99.90;;;;;;5072241;28;20200;-69
2022/05/13 02:31:06;;;;;;;3.40;3.10;;;12.40;99.90;;;;;;5071962;28;20450;-69
2022/05/13 02:33:33;;;;;;;3.20;3.00;;;12.40;99.90;;;;;;5072063;28;20409;-68
2022/05/13 02:36:00;;;;;;;2.90;2.70;;;12.40;99.90;;;;;;5071941;28;20423;-68
2022/05/13 02:38:26;;;;;;;2.73;2.53;;;12.20;99.90;;;;;;5071912;28;20456;-68
2022/05/13 02:43:36;;;;;;;2.57;2.37;;;12.00;99.90;;;;;;5071944;28;20475;-68
2022/05/13 02:46:02;;;;;;;3.90;3.60;;;12.00;99.90;;;;;;5071994;28;20417;-68
2022/05/13 02:48:28;;;;;;;3.30;2.90;;;12.10;99.90;;;;;;5071788;28;20169;-68
2022/05/13 02:50:53;;;;;;;5.60;3.77;;;12.00;99.90;;;;;;5071541;28;20401;-69
2022/05/13 02:53:19;;;;;;;3.73;3.43;;;11.90;99.90;;;;;;5071764;28;20174;-68
2022/05/13 02:55:44;;;;;;;4.70;4.10;;;11.90;99.90;;;;;;5071605;28;20235;-68
2022/05/13 02:58:10;;;;;;;3.40;3.10;;;11.80;99.90;;;;;;5071750;28;20167;-68
2022/05/13 03:00:36;;;;;;;2.87;2.67;;;11.80;99.90;;;;;;5071713;28;20170;-68
2022/05/13 03:03:02;;;;;;;3.03;2.80;;;11.80;99.90;;;;;;5071675;28;20198;-68
2022/05/13 03:05:29;;;;;;;3.03;2.83;;;11.80;99.90;;;;;;5071466;28;20910;-68
2022/05/13 03:07:54;;;;;;;3.13;2.93;;;11.70;99.90;;;;;;5071989;28;20399;-68
2022/05/13 03:10:20;;;;;;;4.30;3.90;;;11.70;99.90;;;;;;5072491;28;20879;-68
2022/05/13 03:12:46;;;;;;;3.43;2.70;;;11.60;99.90;;;;;;5072588;28;20187;-69
2022/05/13 03:15:13;;;;;;;3.13;2.93;;;11.60;99.90;;;;;;5071726;28;20174;-69
2022/05/13 03:17:42;;;;;;;3.07;2.60;;;11.70;99.90;;;;;;5072144;28;20190;-68
2022/05/13 03:20:11;;;;;;;5.37;3.10;;;11.80;99.90;;;;;;5072047;28;20447;-69
2022/05/13 03:22:38;;;;;;;3.17;2.40;;;11.80;99.90;;;;;;5072536;28;20801;-69
2022/05/13 03:25:04;;;;;;;3.50;3.20;;;11.90;99.90;;;;;;5072859;28;20440;-69
2022/05/13 03:27:31;;;;;;;3.30;3.00;;;11.80;99.90;;;;;;5072807;28;20413;-69
2022/05/13 03:29:57;;;;;;;4.30;3.00;;;11.80;99.90;;;;;;5054327;28;20404;-68
2022/05/13 03:32:22;;;;;;;3.60;3.30;;;11.80;99.90;;;;;;5071375;28;20814;-68
2022/05/13 03:34:48;;;;;;;6.00;3.10;;;11.80;99.90;;;;;;5072073;28;20184;-68
2022/05/13 03:37:13;;;;;;;3.40;3.07;;;11.80;99.90;;;;;;5076643;28;20520;-69
2022/05/13 03:39:38;;;;;;;3.27;2.90;;;11.80;99.90;;;;;;5071438;28;20236;-68
2022/05/13 03:42:04;;;;;;;3.53;3.23;;;11.90;99.90;;;;;;5071201;28;20257;-68
2022/05/13 03:44:31;;;;;;;3.97;3.67;;;11.90;99.90;;;;;;5071403;28;20167;-68
2022/05/13 03:46:58;;;;;;;3.27;3.07;;;11.90;99.90;;;;;;5071345;28;20170;-69
2022/05/13 03:49:24;;;;;;;3.47;3.17;;;11.80;99.90;;;;;;5071353;28;20401;-68
2022/05/13 03:51:49;;;;;;;5.30;3.63;;;11.90;99.90;;;;;;5071196;28;20478;-69
2022/05/13 03:54:15;;;;;;;3.30;3.10;;;11.90;99.90;;;;;;5071400;28;20163;-70
2022/05/13 03:56:40;;;;;;;2.90;2.70;;;11.90;99.90;;;;;;5071350;28;20170;-68
2022/05/13 03:59:06;;;;;;;3.90;3.60;;;11.90;99.90;;;;;;5073809;28;20158;-68
2022/05/13 04:01:31;;;;;;;3.13;2.93;;;12.00;99.90;;;;;;5075000;28;20703;-68
2022/05/13 04:03:57;;;;;;;4.10;3.70;;;12.00;99.90;;;;;;5074961;28;20229;-68
2022/05/13 04:09:07;;;;;;;3.30;3.00;;;12.10;99.90;;;;;;5075287;28;20158;-69
2022/05/13 04:11:37;;;;;;;3.17;2.90;;;12.20;99.90;;;;;;5074587;28;20558;-69
2022/05/13 04:16:50;;;;;;;4.90;3.90;;;12.20;99.90;;;;;;5075344;28;20557;-68
2022/05/13 04:19:15;;;;;;;3.43;2.93;;;12.30;99.90;;;;;;5074761;28;20417;-69
2022/05/13 04:21:42;;;;;;;3.20;3.00;;;12.40;99.90;;;;;;5074977;28;20427;-68
2022/05/13 04:24:10;;;;;;;3.20;3.00;;;12.40;99.90;;;;;;5074649;28;20216;-68
2022/05/13 04:26:36;;;;;;;4.20;3.80;;;12.40;99.90;;;;;;5074578;28;20777;-68
2022/05/13 04:29:03;;;;;;;3.40;2.40;;;12.40;99.90;;;;;;5074588;28;20400;-68
2022/05/13 04:31:32;;;;;;;4.47;2.90;;;12.50;99.90;;;;;;5074306;28;20933;-69
2022/05/13 04:33:58;;;;;;;4.03;3.00;;;12.50;99.90;;;;;;5074410;28;20925;-69
2022/05/13 04:36:24;;;;;;;3.30;2.50;;;12.60;99.90;;;;;;5074545;28;20423;-68
2022/05/13 04:38:51;;;;;;;5.40;3.30;;;12.70;99.90;;;;;;5074357;28;20914;-69
2022/05/13 04:44:02;;;;;;;3.27;2.97;;;12.80;99.90;;;;;;5074167;28;20857;-69
2022/05/13 04:46:28;;;;;;;3.50;3.30;;;12.90;99.90;;;;;;5074824;28;20797;-68
2022/05/13 04:48:53;;;;;;;5.07;4.57;;;13.00;99.90;;;;;;5074634;28;20492;-68
2022/05/13 04:51:20;;;;;;;3.10;2.80;;;13.10;99.90;;;;;;5074404;28;20190;-69
2022/05/13 04:53:48;;;;;;;3.03;2.83;;;13.20;99.90;;;;;;5074063;28;20558;-68
2022/05/13 04:56:14;;;;;;;3.60;3.30;;;13.30;99.90;;;;;;5073430;28;20523;-70
2022/05/13 04:58:41;;;;;;;3.40;2.90;;;13.40;99.90;;;;;;5058683;28;20872;-68
2022/05/13 05:01:07;;;;;;;2.80;2.60;;;13.40;99.90;;;;;;5072905;28;20222;-69
2022/05/13 05:03:35;;;;;;;4.00;3.20;;;13.60;99.90;;;;;;5075741;28;20452;-68
2022/05/13 05:06:01;;;;;;;4.63;3.10;;;13.80;99.90;;;;;;5073813;28;20492;-69
2022/05/13 05:08:28;;;;;;;4.40;3.17;;;14.10;99.90;;;;;;5073849;28;20405;-68
2022/05/13 05:10:54;;;;;;;2.93;2.73;;;14.60;99.90;;;;;;5073765;28;20403;-68
2022/05/13 05:13:28;;;;;;;3.27;2.97;;;14.70;99.90;;;;;;5075223;28;20461;-68
2022/05/13 05:15:55;;;;;;;3.30;2.50;;;15.00;99.90;;;;;;5073910;28;20463;-68
2022/05/13 05:18:21;;;;;;;3.60;2.37;;;15.20;99.90;;;;;;5073688;28;20469;-68
2022/05/13 05:20:47;;;;;;;2.57;2.37;;;15.80;99.90;;;;;;5074049;28;20488;-68
2022/05/13 05:23:22;;;;;;;3.00;2.40;;;16.00;99.90;;;;;;5073850;28;21046;-68
2022/05/13 05:25:47;;;;;;;3.43;2.40;;;16.40;99.90;;;;;;5074322;28;20415;-67
2022/05/13 05:28:14;;;;;;;2.37;2.10;;;16.40;99.90;;;;;;5073803;28;20902;-68
2022/05/13 05:30:40;;;;;;;2.90;2.70;;;16.50;99.90;;;;;;5074548;28;20177;-68
2022/05/13 05:33:07;;;;;;;2.83;2.20;;;16.80;99.90;;;;;;5091833;23;20976;-71
2022/05/13 05:35:33;;;;;;;3.07;2.10;;;17.20;99.90;;;;;;5055196;28;20412;-71
2022/05/13 05:37:58;;;;;;;3.07;2.37;;;17.40;99.90;;;;;;5073406;28;20524;-70
2022/05/13 05:40:24;;;;;;;2.43;2.03;;;17.40;99.90;;;;;;5055322;28;21129;-73
2022/05/13 05:42:49;;;;;;;3.60;2.30;;;17.50;99.90;;;;;;5072818;28;20609;-71
2022/05/13 05:45:17;;;;;;;2.17;1.97;;;17.80;99.90;;;;;;5072719;28;20178;-72
2022/05/13 05:47:43;;;;;;;3.30;3.00;;;18.60;99.90;;;;;;5073130;28;20170;-71
2022/05/13 05:50:17;;;;;;;4.87;2.07;;;18.30;99.90;;;;;;5072875;28;20918;-71
2022/05/13 05:52:42;;;;;;;3.03;2.47;;;18.60;99.90;;;;;;5073097;28;20555;-70
2022/05/13 05:58:02;;;;;;;3.37;2.23;;;18.70;99.90;;;;;;5064123;28;20554;-72
2022/05/13 06:00:30;;;;;;;2.90;2.70;;;18.90;99.90;;;;;;5052720;28;20469;-70
2022/05/13 06:02:56;;;;;;;2.73;2.37;;;18.70;99.90;;;;;;5054441;28;20501;-71
2022/05/13 06:05:23;;;;;;;2.17;1.97;;;19.10;99.90;;;;;;5072426;28;20829;-71
2022/05/13 06:07:49;;;;;;;2.90;2.17;;;19.40;99.90;;;;;;5072802;28;20721;-71
2022/05/13 06:10:15;;;;;;;3.10;2.57;;;20.40;99.90;;;;;;5072493;28;20483;-72
2022/05/13 06:12:41;;;;;;;2.33;2.10;;;20.70;99.20;;;;;;5072743;28;20462;-71
2022/05/13 06:15:07;;;;;;;2.23;2.03;;;20.10;98.70;;;;;;5072651;28;20415;-71
2022/05/13 06:17:33;;;;;;;2.47;2.27;;;20.20;98.20;;;;;;5054601;28;20172;-71
2022/05/13 06:20:03;;;;;;;3.03;2.07;;;20.00;98.10;;;;;;5072486;28;20418;-71
2022/05/13 06:22:29;;;;;;;3.83;2.40;;;20.80;97.40;;;;;;5053562;28;20209;-71
2022/05/13 06:24:54;;;;;;;3.53;2.90;;;21.50;97.60;;;;;;5053428;28;20412;-71
2022/05/13 06:27:21;;;;;;;2.77;2.53;;;21.20;96.10;;;;;;5072264;28;20187;-70
2022/05/13 06:29:47;;;;;;;3.20;2.77;;;21.50;96.00;;;;;;5072462;28;20164;-71
2022/05/13 06:32:12;;;;;;;3.33;2.33;;;21.50;94.50;;;;;;5054867;28;20461;-71
2022/05/13 06:34:38;;;;;;;2.90;2.30;;;21.30;96.60;;;;;;5052268;28;20162;-70
2022/05/13 06:37:04;;;;;;;3.63;3.03;;;22.50;95.10;;;;;;5052273;28;20545;-71
2022/05/13 06:39:29;;;;;;;2.83;2.40;;;22.60;93.30;;;;;;5052141;28;20177;-71
2022/05/13 06:41:55;;;;;;;2.73;2.53;;;22.00;94.70;;;;;;5051836;28;20190;-72
2022/05/13 06:44:20;;;;;;;3.17;2.87;;;22.40;93.60;;;;;;5051953;28;20230;-69
2022/05/13 06:46:47;;;;;;;2.73;2.53;;;22.70;93.50;;;;;;5052288;28;20518;-70
2022/05/13 06:49:14;;;;;;;4.77;2.70;;;22.70;92.70;;;;;;5052010;28;20257;-72
2022/05/13 06:51:40;;;;;;;2.53;2.33;;;23.00;92.20;;;;;;5051796;28;20404;-71
2022/05/13 06:54:09;;;;;;;4.07;3.27;;;22.90;92.70;;;;;;5051703;28;20450;-72
2022/05/13 06:56:36;;;;;;;2.23;2.10;;;22.10;91.60;;;;;;5051597;28;21001;-71
2022/05/13 06:59:02;;;;;;;4.90;3.00;;;22.50;93.80;;;;;;5068905;28;20535;-70
2022/05/13 07:01:28;;;;;;;2.63;2.40;;;23.00;92.40;;;;;;5071552;28;20423;-70
2022/05/13 07:03:53;;;;;;;4.13;3.20;;;22.80;92.00;;;;;;5063183;28;20452;-71
2022/05/13 07:06:19;;;;;;;4.10;3.27;;;22.60;90.80;;;;;;5051401;28;20170;-71
2022/05/13 07:08:45;;;;;;;3.87;3.57;;;22.80;91.50;;;;;;5051360;28;20644;-70
2022/05/13 07:11:10;;;;;;;3.70;3.00;;;22.90;90.80;;;;;;5051253;28;20503;-71
2022/05/13 07:13:36;;;;;;;4.90;3.20;;;21.10;91.10;;;;;;5051231;28;20197;-71
2022/05/13 07:16:02;;;;;;;7.50;5.83;;;21.40;93.30;;;;;;5051179;28;20181;-71
2022/05/13 07:18:28;;;;;;;4.60;3.67;;;23.30;91.70;;;;;;5051108;28;20178;-71
2022/05/13 07:20:53;;;;;;;4.20;3.80;;;22.60;89.20;;;;;;5060300;28;20193;-71
2022/05/13 07:23:19;;;;;;;8.20;6.30;;;22.60;90.90;;;;;;5071371;28;20490;-71
2022/05/13 07:25:45;;;;;;;15.53;11.97;;;22.00;92.10;;;;;;5069630;28;20544;-71
2022/05/13 07:28:10;;;;;;;15.10;10.43;;;22.80;91.80;;;;;;5069906;28;20166;-71
2022/05/13 07:30:36;;;;;;;6.83;5.20;;;23.00;90.30;;;;;;5071193;28;20410;-71
2022/05/13 07:33:02;;;;;;;10.60;7.93;;;22.10;90.80;;;;;;5072181;28;20210;-71
2022/05/13 07:35:27;;;;;;;3.80;3.40;;;21.70;91.70;;;;;;5075335;28;20176;-72
2022/05/13 07:37:53;;;;;;;4.13;3.83;;;20.90;92.50;;;;;;5075413;28;20173;-72
2022/05/13 07:43:03;;;;;;;6.53;5.13;;;20.10;93.50;;;;;;5075473;28;20260;-72
2022/05/13 07:45:29;;;;;;;4.63;4.00;;;19.90;94.20;;;;;;5075300;28;20400;-71
2022/05/13 07:47:54;;;;;;;4.93;4.50;;;20.30;94.10;;;;;;5075354;28;20203;-72
2022/05/13 07:50:20;;;;;;;6.10;4.77;;;20.50;92.10;;;;;;5075285;28;20409;-71
2022/05/13 07:52:46;;;;;;;4.43;4.13;;;19.70;94.10;;;;;;5075592;28;20223;-71
2022/05/13 07:55:15;;;;;;;5.33;3.70;;;19.20;94.00;;;;;;5074853;28;20413;-72
2022/05/13 07:57:42;;;;;;;6.10;5.03;;;19.30;94.10;;;;;;5075139;28;20165;-71
2022/05/13 08:00:32;;;;;;;4.17;3.43;;;18.90;95.00;;;;;;5074992;28;20454;-71
2022/05/13 08:03:02;;;;;;;4.03;3.63;;;18.70;95.90;;;;;;5074689;28;20457;-71
2022/05/13 08:05:31;;;;;;;4.10;3.23;;;18.70;95.50;;;;;;5074806;28;20455;-71
2022/05/13 08:08:16;;;;;;;3.67;3.37;;;18.40;95.90;;;;;;5075156;28;20845;-71
2022/05/13 08:10:52;;;;;;;6.20;4.27;;;18.40;97.40;;;;;;5074769;28;20498;-71
2022/05/13 08:13:18;;;;;;;6.47;4.27;;;18.70;96.80;;;;;;5074704;28;20430;-71
2022/05/13 08:15:44;;;;;;;5.53;4.57;;;18.40;98.30;;;;;;5074738;28;20411;-71
2022/05/13 08:18:09;;;;;;;4.03;3.73;;;18.00;99.00;;;;;;5074707;28;20413;-71
2022/05/13 08:20:35;;;;;;;5.20;4.70;;;18.60;98.90;;;;;;5074624;28;20182;-71
2022/05/13 08:23:01;;;;;;;5.20;4.47;;;18.90;98.70;;;;;;5074555;28;20212;-70
2022/05/13 08:25:27;;;;;;;5.60;4.70;;;18.20;98.00;;;;;;5074555;28;20812;-70
2022/05/13 08:27:53;;;;;;;6.30;4.30;;;18.10;98.60;;;;;;5074735;28;20171;-70
2022/05/13 08:30:18;;;;;;;4.67;4.27;;;18.70;98.50;;;;;;5074652;28;20235;-70
2022/05/13 08:32:44;;;;;;;5.53;4.10;;;18.70;97.90;;;;;;5074439;28;20206;-70
2022/05/13 08:35:11;;;;;;;4.47;3.77;;;18.40;98.40;;;;;;5074655;28;20478;-70
2022/05/13 08:37:43;;;;;;;5.80;4.40;;;17.70;98.20;;;;;;5074379;28;20513;-70
2022/05/13 08:40:17;;;;;;;4.10;3.80;;;17.60;99.90;;;;;;5074318;28;20503;-70
2022/05/13 08:42:46;;;;;;;4.80;4.40;;;17.60;99.90;;;;;;5074225;28;20451;-71
2022/05/13 08:45:12;;;;;;;4.20;3.70;;;17.70;99.80;;;;;;5073579;28;20409;-70
2022/05/13 08:47:56;;;;;;;4.33;3.93;;;18.40;99.90;;;;;;5074428;28;20762;-71
2022/05/13 08:50:28;;;;;;;5.03;4.03;;;18.80;99.50;;;;;;5074370;28;20463;-70
2022/05/13 08:53:35;;;;;;;6.23;5.57;;;19.40;98.40;;;;;;5074220;28;20456;-70
2022/05/13 08:56:14;;;;;;;4.33;3.97;;;18.30;98.80;;;;;;5074081;28;20545;-70
2022/05/13 08:58:50;;;;;;;4.90;4.50;;;18.60;99.80;;;;;;5074094;28;20884;-71
2022/05/13 09:01:24;;;;;;;6.50;4.63;;;18.40;99.90;;;;;;5074008;28;20401;-71
2022/05/13 09:03:54;;;;;;;7.27;4.57;;;17.70;99.90;;;;;;5073812;28;20456;-71
2022/05/13 09:06:32;;;;;;;5.90;4.77;;;17.60;99.90;;;;;;5073671;28;20417;-71
2022/05/13 09:09:01;;;;;;;4.83;4.43;;;18.80;99.70;;;;;;5074011;28;20826;-71
2022/05/13 09:11:31;;;;;;;7.93;4.53;;;18.30;99.70;;;;;;5071531;28;20517;-71
2022/05/13 09:14:05;;;;;;;5.53;4.50;;;19.20;99.90;;;;;;5072106;28;20528;-70
2022/05/13 09:17:03;;;;;;;3.47;3.20;;;18.90;98.00;;;;;;5063753;28;20512;-71
2022/05/13 09:19:35;;;;;;;4.30;3.77;;;18.70;98.30;;;;;;5037637;28;20426;-70
2022/05/13 09:22:04;;;;;;;3.50;3.20;;;18.50;97.30;;;;;;5054965;28;20438;-71
2022/05/13 09:24:29;;;;;;;4.57;4.13;;;19.10;98.80;;;;;;5053806;28;20429;-71
2022/05/13 09:26:55;;;;;;;3.20;2.90;;;19.40;96.80;;;;;;5053305;28;20788;-71
2022/05/13 09:29:21;;;;;;;4.97;3.10;;;19.40;97.50;;;;;;5058324;28;20562;-70
2022/05/13 09:32:10;;;;;;;3.90;2.60;;;20.00;96.30;;;;;;5073398;28;20220;-71
2022/05/13 09:34:49;;;;;;;2.67;2.33;;;20.50;94.40;;;;;;5073397;28;20231;-71
2022/05/13 09:37:23;;;;;;;5.73;2.90;;;20.40;94.30;;;;;;5073427;28;20407;-71
2022/05/13 09:40:04;;;;;;;2.80;2.37;;;19.50;93.10;;;;;;5073646;28;20426;-70
2022/05/13 09:42:45;;;;;;;3.33;2.20;;;19.30;95.30;;;;;;5073403;28;20461;-71
2022/05/13 09:45:19;;;;;;;5.20;2.23;;;20.30;93.90;;;;;;5070134;28;20485;-71
2022/05/13 09:48:04;;;;;;;4.90;2.60;;;20.60;93.40;;;;;;5053255;28;20394;-71
2022/05/13 09:50:44;;;;;;;2.90;1.80;;;19.70;93.10;;;;;;5053207;28;20434;-71
2022/05/13 09:53:21;;;;;;;3.00;1.93;;;20.20;92.90;;;;;;5056223;28;20426;-71
2022/05/13 09:55:49;;;;;;;1.87;1.60;;;20.10;93.20;;;;;;5072079;28;20408;-73
2022/05/13 09:58:22;;;;;;;2.00;1.77;;;20.00;92.60;;;;;;5072397;28;20420;-72
2022/05/13 10:00:52;;;;;;;2.90;1.80;;;19.40;93.80;;;;;;5072855;28;20492;-70
2022/05/13 10:03:21;;;;;;;5.47;1.90;;;20.30;93.50;;;;;;5072524;28;20456;-71
2022/05/13 10:06:11;;;;;;;9.70;5.80;;;20.50;93.10;;;;;;5073058;28;20773;-72
2022/05/13 10:08:51;;;;;;;12.27;10.03;;;21.20;93.40;;;;;;5072621;28;20423;-72
2022/05/13 10:14:32;;;;;;;5.93;5.40;;;22.50;91.50;;;;;;5024611;28;20408;-69
2022/05/13 10:17:17;;;;;;;4.40;3.77;;;21.70;90.70;;;;;;5052644;28;20387;-70
2022/05/13 10:19:52;;;;;;;2.60;2.40;;;22.00;91.30;;;;;;5058888;28;20432;-75
2022/05/13 10:22:28;;;;;;;3.70;3.40;;;20.20;90.70;;;;;;5063881;28;20446;-69
2022/05/13 10:25:05;;;;;;;2.63;2.10;;;21.80;91.60;;;;;;5053554;28;20481;-70
2022/05/13 10:27:37;;;;;;;2.50;1.37;;;20.80;91.10;;;;;;5034439;28;20431;-69
2022/05/13 10:30:05;;;;;;;2.90;1.83;;;19.80;92.20;;;;;;5052208;28;20408;-70
2022/05/13 10:33:08;;;;;;;2.17;1.93;;;20.10;92.10;;;;;;5052071;28;20450;-70
2022/05/13 10:35:53;;;;;;;3.73;2.13;;;19.60;92.00;;;;;;5051723;28;20420;-69
2022/05/13 10:38:34;;;;;;;2.23;1.70;;;19.40;92.90;;;;;;5052192;28;20465;-69
2022/05/13 10:41:28;;;;;;;2.50;2.07;;;19.50;92.90;;;;;;5052406;28;20413;-69
2022/05/13 10:44:16;;;;;;;3.90;2.20;;;19.50;93.80;;;;;;5051729;28;20457;-69
2022/05/13 10:46:52;;;;;;;2.57;2.37;;;19.10;94.40;;;;;;5059495;28;20485;-68
2022/05/13 10:49:18;;;;;;;2.07;1.90;;;19.10;93.90;;;;;;5072324;28;20410;-69
2022/05/13 10:51:58;;;;;;;1.93;1.70;;;19.10;93.90;;;;;;5071976;28;20777;-70
2022/05/13 10:54:48;;;;;;;4.43;2.23;;;18.80;94.40;;;;;;5071758;28;20752;-69
2022/05/13 10:57:39;;;;;;;1.90;1.70;;;19.10;94.70;;;;;;5071860;28;20416;-69
2022/05/13 11:00:29;;;;;;;2.40;2.20;;;19.00;94.20;;;;;;5071908;28;21008;-68
2022/05/13 11:03:27;;;;;;;2.00;1.80;;;19.10;94.90;;;;;;5023202;28;20516;-68
2022/05/13 11:06:30;;;;;;;2.63;2.40;;;19.60;93.40;;;;;;5071544;28;20840;-68
2022/05/13 11:09:19;;;;;;;1.90;1.80;;;20.00;93.70;;;;;;5071616;28;20418;-68
2022/05/13 11:11:45;;;;;;;3.73;2.30;;;20.00;93.30;;;;;;5071459;28;20773;-69
2022/05/13 11:14:48;;;;;;;2.63;2.00;;;19.90;89.70;;;;;;5071615;28;20410;-68
2022/05/13 11:17:22;;;;;;;1.40;1.30;;;20.00;91.10;;;;;;5071569;28;20451;-68
2022/05/13 11:20:25;;;;;;;1.40;1.20;;;20.30;89.30;;;;;;5067937;28;20446;-69
2022/05/13 11:23:23;;;;;;;2.70;1.40;;;19.80;86.10;;;;;;5051326;28;20447;-68
2022/05/13 11:26:00;;;;;;;2.20;2.07;;;20.40;87.30;;;;;;5020281;28;20419;-69
2022/05/13 11:28:45;;;;;;;2.33;1.50;;;20.30;84.40;;;;;;5051480;28;20427;-69
2022/05/13 11:31:30;;;;;;;1.40;1.30;;;19.70;84.80;;;;;;5051549;28;20504;-69
2022/05/13 11:34:20;;;;;;;2.97;1.77;;;20.00;87.90;;;;;;5051154;28;20462;-68
2022/05/13 11:37:05;;;;;;;1.60;1.50;;;19.60;87.00;;;;;;5051347;28;20401;-69
2022/05/13 11:39:52;;;;;;;2.10;1.90;;;19.30;85.50;;;;;;5051525;28;20415;-67
2022/05/13 11:42:31;;;;;;;2.23;2.13;;;19.10;86.70;;;;;;5067011;28;20426;-68
2022/05/13 11:45:12;;;;;;;2.00;1.80;;;19.30;86.10;;;;;;5071232;28;20951;-69
2022/05/13 11:47:48;;;;;;;2.80;1.80;;;19.90;83.70;;;;;;5071418;28;20397;-69
2022/05/13 11:50:16;;;;;;;4.50;2.00;;;20.00;84.00;;;;;;5071343;28;20392;-68
2022/05/13 11:52:41;;;;;;;2.67;2.37;;;20.00;83.50;;;;;;5070940;28;20418;-69
2022/05/13 11:55:17;;;;;;;1.83;1.73;;;20.20;83.70;;;;;;5071120;28;20405;-70
2022/05/13 11:57:49;;;;;;;2.00;1.53;;;20.10;79.30;;;;;;5071137;28;20170;-71
2022/05/13 12:00:19;;;;;;;1.90;1.80;;;19.60;80.10;;;;;;5071164;28;20481;-72
2022/05/13 12:02:56;;;;;;;2.40;2.03;;;19.40;81.30;;;;;;5070904;28;20442;-71
2022/05/13 12:05:21;;;;;;;1.70;1.60;;;19.20;82.50;;;;;;5071386;28;20815;-71
2022/05/13 12:08:02;;;;;;;1.43;1.33;;;19.10;85.40;;;;;;5071544;28;20395;-71
2022/05/13 12:10:54;;;;;;;2.20;1.90;;;19.40;83.20;;;;;;5071582;28;20177;-71
2022/05/13 12:13:23;;;;;;;2.57;1.70;;;19.50;85.40;;;;;;5070641;28;20433;-71
2022/05/13 12:16:07;;;;;;;2.00;1.80;;;18.90;85.40;;;;;;5071165;28;20410;-71
2022/05/13 12:18:41;;;;;;;2.93;1.80;;;19.40;86.30;;;;;;5071267;28;20417;-71
2022/05/13 12:21:21;;;;;;;3.30;1.90;;;19.10;85.50;;;;;;5071047;28;20992;-70
2022/05/13 12:24:13;;;;;;;2.37;1.90;;;18.70;84.40;;;;;;5074302;28;20453;-70
2022/05/13 12:26:54;;;;;;;3.83;2.23;;;18.60;85.40;;;;;;5056563;28;20426;-70
2022/05/13 12:29:34;;;;;;;3.20;1.80;;;19.10;85.50;;;;;;5074697;28;20898;-71
2022/05/13 12:32:00;;;;;;;5.67;1.60;;;19.40;87.10;;;;;;5056297;28;20628;-71
2022/05/13 12:37:36;;;;;;;2.00;1.60;;;19.70;85.40;;;;;;5074839;28;20870;-72
2022/05/13 12:40:02;;;;;;;1.80;1.10;;;19.70;86.30;;;;;;5074425;28;20402;-72
2022/05/13 12:42:44;;;;;;;3.20;1.70;;;19.70;84.50;;;;;;5074037;28;20555;-72
2022/05/13 12:45:18;;;;;;;1.80;1.23;;;20.10;84.40;;;;;;5074399;28;20398;-71
2022/05/13 12:48:08;;;;;;;12.90;7.43;;;19.80;84.40;;;;;;5074169;28;20414;-72
2022/05/13 12:51:15;;;;;;;2.50;1.77;;;19.90;90.50;;;;;;5074247;28;20399;-72
2022/05/13 12:53:52;;;;;;;1.43;1.07;;;19.90;84.60;;;;;;5074043;28;20435;-72
2022/05/13 12:56:39;;;;;;;5.93;4.80;;;19.60;82.90;;;;;;5074403;28;20811;-72
2022/05/13 12:59:19;;;;;;;2.27;1.53;;;19.70;83.40;;;;;;5074387;28;20911;-71
2022/05/13 13:01:48;;;;;;;7.03;1.63;;;19.50;79.70;;;;;;5073909;28;20405;-72
2022/05/13 13:04:17;;;;;;;2.30;1.40;;;19.40;81.50;;;;;;5073739;28;20464;-72
2022/05/13 13:06:47;;;;;;;2.23;1.50;;;19.20;82.30;;;;;;5073937;28;20397;-72
2022/05/13 13:09:27;;;;;;;2.60;1.73;;;18.50;81.60;;;;;;5073893;28;20726;-71
2022/05/13 13:12:10;;;;;;;2.53;1.47;;;18.50;84.10;;;;;;5073603;28;20415;-69
2022/05/13 13:15:03;;;;;;;2.17;1.70;;;18.00;84.10;;;;;;5073456;28;20400;-72
2022/05/13 13:17:42;;;;;;;1.40;1.10;;;17.70;85.70;;;;;;5073744;28;20400;-70
2022/05/13 13:20:10;;;;;;;3.37;1.60;;;17.70;87.70;;;;;;5069842;28;20776;-72
2022/05/13 13:22:43;;;;;;;3.10;2.07;;;17.80;87.30;;;;;;5073403;28;20537;-71
2022/05/13 13:25:20;;;;;;;33.50;20.13;;;17.80;89.00;;;;;;5073421;28;20971;-71
2022/05/13 13:27:46;;;;;;;6.40;4.60;;;18.40;90.50;;;;;;5073304;28;20400;-71
2022/05/13 13:30:17;;;;;;;4.67;2.23;;;18.50;86.60;;;;;;5072455;28;20789;-71